TAF Text Data
IDs:
Format:
Raw Decoded Include METAR

Data at: 1131 UTC 24 Jan 2019

KCVS 241058Z AUTO 34019KT 10SM CLR 01/M10 A2993 RMK AO2 SLP129 T00081101 $

TAF KCVS 241003Z 2410/2516 31012KT 9999 FEW100 QNH2992INS
  BECMG 2414/2415 02012G20KT 9999 SKC QNH3005INS
  BECMG 2421/2422 06007KT 9999 SKC QNH3022INS
  BECMG 2509/2510 17010KT 9999 SCT010 QNH3020INS
  TEMPO 2511/2515 BKN010 TX07/2421Z TNM01/2412Z